Time;durP1;ratioP1;P1;durP2;ratioP2;P2;SDS_P1;SDS_P2;PMS_P1;PMS_P2;Temp;Humidity;BMP_temperature;BMP_pressure;BME280_temperature;BME280_humidity;BME280_pressure;Samples;Min_cycle;Max_cycle;Signal;HPM_P1;HPM_P2
2022/02/08 00:02:26;;;;;;;64.65;35.95;;;;;;;5.08;79.58;99468.58;1740185;82;21248;-64
2022/02/08 00:05:31;;;;;;;68.83;35.60;;;;;;;5.09;79.71;99465.70;1740807;80;21232;-63
2022/02/08 00:08:39;;;;;;;72.50;37.15;;;;;;;5.11;79.74;99455.54;1740509;82;21352;-63
2022/02/08 00:11:45;;;;;;;72.08;36.05;;;;;;;5.11;79.73;99450.11;1740090;82;21200;-63
2022/02/08 00:14:52;;;;;;;74.42;35.17;;;;;;;5.13;79.76;99455.38;1740200;81;21205;-62
2022/02/08 00:17:58;;;;;;;69.72;37.17;;;;;;;5.13;79.86;99448.59;1740299;82;21682;-63
2022/02/08 00:21:08;;;;;;;70.97;36.42;;;;;;;5.12;79.79;99456.40;1739941;81;21344;-62
2022/02/08 00:24:13;;;;;;;71.17;35.95;;;;;;;5.10;79.93;99458.42;1740175;81;21248;-64
2022/02/08 00:27:19;;;;;;;67.55;35.52;;;;;;;5.10;80.00;99451.64;1740249;82;21327;-63
2022/02/08 00:30:25;;;;;;;81.95;38.05;;;;;;;5.09;80.00;99453.48;1740158;81;21333;-63
2022/02/08 00:33:31;;;;;;;67.65;36.28;;;;;;;5.11;79.96;99457.39;1740234;82;21237;-63
2022/02/08 00:36:39;;;;;;;79.03;37.67;;;;;;;5.09;79.91;99458.09;1740467;82;21205;-63
2022/02/08 00:39:45;;;;;;;90.57;40.45;;;;;;;5.08;79.81;99464.50;1740481;81;21217;-64
2022/02/08 00:42:52;;;;;;;80.57;41.40;;;;;;;5.06;79.77;99467.91;1740307;82;21394;-63
2022/02/08 00:46:09;;;;;;;86.05;40.92;;;;;;;5.05;80.00;99468.91;1734023;81;21283;-63
2022/02/08 00:49:09;;;;;;;100.50;41.30;;;;;;;5.04;80.14;99464.01;1740288;81;21339;-63
2022/02/08 00:52:16;;;;;;;99.22;41.30;;;;;;;5.04;80.27;99464.50;1740062;82;21221;-63
2022/02/08 00:55:23;;;;;;;81.17;40.90;;;;;;;5.00;80.35;99454.98;1717819;82;21253;-63
2022/02/08 00:58:29;;;;;;;91.15;40.90;;;;;;;5.01;80.48;99451.27;1740503;82;21343;-63
2022/02/08 01:01:37;;;;;;;96.92;39.25;;;;;;;4.99;80.55;99451.44;1740369;82;21741;-63
2022/02/08 01:04:48;;;;;;;88.58;39.27;;;;;;;5.00;80.73;99455.84;1740246;81;21737;-63
2022/02/08 01:07:52;;;;;;;92.20;41.23;;;;;;;4.98;80.78;99451.08;1740356;82;21244;-63
2022/02/08 01:11:00;;;;;;;97.82;42.38;;;;;;;4.99;80.85;99451.94;1740889;81;21249;-63
2022/02/08 01:14:06;;;;;;;101.22;42.85;;;;;;;4.98;80.84;99455.67;1717983;81;21399;-63
2022/02/08 01:17:14;;;;;;;114.62;46.68;;;;;;;4.93;80.81;99458.84;1740308;82;21264;-64
2022/02/08 01:20:29;;;;;;;109.57;43.10;;;;;;;4.92;81.11;99453.09;1740244;81;21284;-64
2022/02/08 01:23:28;;;;;;;111.10;45.12;;;;;;;4.92;81.36;99457.16;1740321;82;21279;-63
2022/02/08 01:26:43;;;;;;;103.85;45.55;;;;;;;4.92;81.42;99454.94;1740198;82;21750;-63
2022/02/08 01:39:35;;;;;;;107.37;43.55;;;;;;;4.88;82.27;99480.70;1741278;81;21466;-62
2022/02/08 01:42:41;;;;;;;111.62;44.98;;;;;;;4.87;82.30;99481.19;1740142;82;21268;-63
2022/02/08 01:46:08;;;;;;;110.60;43.73;;;;;;;4.87;82.22;99483.08;1740355;81;21235;-63
2022/02/08 01:49:15;;;;;;;113.30;43.60;;;;;;;4.84;82.12;99488.30;1740206;81;21201;-64
2022/02/08 01:52:21;;;;;;;98.22;43.80;;;;;;;4.84;82.26;99483.37;1714156;82;21303;-63
2022/02/08 01:55:30;;;;;;;98.65;45.63;;;;;;;4.83;82.15;99487.10;1733830;81;21710;-62
2022/02/08 01:58:38;;;;;;;103.83;45.12;;;;;;;4.79;82.04;99480.31;1739907;82;21350;-63
2022/02/08 02:01:50;;;;;;;110.08;45.80;;;;;;;4.80;82.10;99488.78;1740352;82;21772;-63
2022/02/08 02:04:56;;;;;;;108.03;46.35;;;;;;;4.82;82.39;99488.95;1740360;81;21501;-64
2022/02/08 02:08:04;;;;;;;100.75;46.13;;;;;;;4.87;82.68;99484.43;1741209;81;21229;-63
2022/02/08 02:11:13;;;;;;;121.37;51.77;;;;;;;4.88;82.94;99486.98;1740153;82;21367;-62
2022/02/08 02:14:20;;;;;;;119.70;55.35;;;;;;;4.90;82.91;99485.45;1740421;81;21230;-62
2022/02/08 02:17:26;;;;;;;120.90;52.90;;;;;;;4.88;82.82;99492.89;1740712;82;21793;-63
2022/02/08 02:20:33;;;;;;;108.40;46.18;;;;;;;4.87;82.83;99496.63;1740293;81;21220;-63
2022/02/08 02:23:40;;;;;;;94.28;44.93;;;;;;;4.88;82.80;99496.47;1740510;82;21606;-63
2022/02/08 02:26:49;;;;;;;110.52;47.08;;;;;;;4.87;82.79;99500.17;1740163;82;21398;-62
2022/02/08 02:29:55;;;;;;;104.80;45.10;;;;;;;4.88;82.73;99505.09;1740139;81;21232;-65
2022/02/08 02:33:01;;;;;;;100.25;45.23;;;;;;;4.88;82.75;99510.03;1740230;82;21212;-62
2022/02/08 02:36:07;;;;;;;106.00;47.05;;;;;;;4.88;82.70;99517.30;1740467;81;21229;-63
2022/02/08 02:39:15;;;;;;;104.32;47.70;;;;;;;4.86;82.71;99509.82;1740360;81;21229;-63
2022/02/08 02:42:26;;;;;;;113.97;47.25;;;;;;;4.85;82.62;99518.48;1740482;82;21220;-63
2022/02/08 02:45:30;;;;;;;102.25;47.20;;;;;;;4.83;82.56;99520.99;1740460;81;21402;-63
2022/02/08 02:48:38;;;;;;;108.52;45.75;;;;;;;4.82;82.47;99529.62;1740333;82;21209;-62
2022/02/08 02:51:45;;;;;;;100.58;45.38;;;;;;;4.79;82.44;99531.30;1740045;82;21232;-64
2022/02/08 02:54:50;;;;;;;106.00;48.35;;;;;;;4.76;82.47;99527.55;1740566;81;21217;-63
2022/02/08 02:57:56;;;;;;;109.90;47.95;;;;;;;4.75;82.66;99529.07;1740919;82;21275;-62
2022/02/08 03:04:27;;;;;;;96.40;44.15;;;;;;;4.76;83.06;99521.30;1740468;81;21827;-63
2022/02/08 03:17:41;;;;;;;121.70;49.42;;;;;;;4.80;82.92;99535.73;1742072;82;21441;-63
2022/02/08 03:20:43;;;;;;;125.85;51.28;;;;;;;4.78;82.83;99539.59;1741971;81;21363;-62
2022/02/08 03:23:49;;;;;;;111.75;51.45;;;;;;;4.75;82.82;99537.20;1742073;81;21367;-64
2022/02/08 03:26:56;;;;;;;105.52;47.38;;;;;;;4.71;82.86;99543.44;1742073;82;21413;-62
2022/02/08 03:30:03;;;;;;;95.32;44.08;;;;;;;4.68;82.85;99541.58;1742589;81;21892;-62
2022/02/08 03:33:09;;;;;;;107.32;45.78;;;;;;;4.60;82.73;99541.00;1741917;82;21216;-62
2022/02/08 03:36:16;;;;;;;110.83;44.95;;;;;;;4.50;82.70;99542.45;1742470;82;21946;-63
2022/02/08 03:39:32;;;;;;;104.47;42.50;;;;;;;4.40;82.68;99553.05;1741971;81;21348;-62
2022/02/08 03:42:45;;;;;;;94.30;42.90;;;;;;;4.36;83.13;99549.80;1741950;82;21276;-62
2022/02/08 03:45:43;;;;;;;82.97;39.18;;;;;;;4.37;83.46;99552.01;1742066;81;21430;-62
2022/02/08 03:48:50;;;;;;;91.97;39.85;;;;;;;4.35;83.57;99556.23;1742280;81;21339;-62
2022/02/08 03:52:00;;;;;;;78.30;37.28;;;;;;;4.31;83.79;99562.12;1742035;82;21423;-63
2022/02/08 03:55:06;;;;;;;85.55;37.15;;;;;;;4.26;83.90;99563.95;1742427;81;21240;-62
2022/02/08 03:58:11;;;;;;;74.87;36.00;;;;;;;4.26;84.24;99560.38;1742590;82;21338;-62
2022/02/08 04:01:56;;;;;;;83.17;37.30;;;;;;;4.27;84.26;99568.34;1742113;82;21327;-62
2022/02/08 04:07:58;;;;;;;77.90;38.08;;;;;;;4.31;84.73;99575.67;1742182;82;21634;-62
2022/02/08 04:11:01;;;;;;;82.30;38.13;;;;;;;4.39;84.95;99579.80;1741528;81;21363;-63
2022/02/08 04:14:35;;;;;;;90.60;36.23;;;;;;;4.40;84.68;99580.14;1740557;81;21213;-64
2022/02/08 04:18:09;;;;;;;75.05;36.65;;;;;;;4.40;84.71;99582.85;1740424;82;21386;-64
2022/02/08 04:44:40;;;;;;;66.07;34.35;;;;;;;4.20;85.39;99604.34;1740156;81;21220;-63
2022/02/08 04:50:18;;;;;;;64.97;34.33;;;;;;;4.18;85.88;99615.34;1768797;80;21355;-63
2022/02/08 04:53:33;;;;;;;70.83;33.98;;;;;;;4.24;85.95;99617.91;1770616;80;21340;-64
2022/02/08 04:57:23;;;;;;;68.62;34.30;;;;;;;4.23;85.77;99625.17;1769165;81;21220;-63
2022/02/08 05:43:17;;;;;;;67.42;38.28;;;;;;;4.28;85.22;99691.11;1766466;81;21268;-62
2022/02/08 05:47:03;;;;;;;68.72;38.53;;;;;;;4.33;85.49;99690.98;1770468;80;21830;-62
2022/02/08 05:49:28;;;;;;;73.00;38.53;;;;;;;4.43;85.54;99697.19;1757224;80;21343;-62
2022/02/08 05:55:37;;;;;;;66.97;34.53;;;;;;;4.51;85.04;99699.13;1740600;81;21189;-62
2022/02/08 05:58:43;;;;;;;64.65;35.55;;;;;;;4.57;84.88;99699.86;1753595;81;21390;-63
2022/02/08 06:01:49;;;;;;;58.45;32.98;;;;;;;4.60;84.52;99701.76;1769854;81;22000;-63
2022/02/08 06:04:57;;;;;;;52.85;30.80;;;;;;;4.58;84.11;99700.23;1750873;79;21208;-63
2022/02/08 06:08:02;;;;;;;48.20;28.95;;;;;;;4.60;84.10;99709.89;1739181;82;21244;-62
2022/02/08 06:11:15;;;;;;;46.42;26.52;;;;;;;4.63;83.88;99712.29;1764149;79;21213;-63
2022/02/08 06:14:24;;;;;;;44.95;26.77;;;;;;;4.52;83.37;99722.50;1768553;79;21236;-62
2022/02/08 06:17:25;;;;;;;38.33;23.10;;;;;;;4.42;83.37;99718.50;1769902;80;21181;-62
2022/02/08 06:20:31;;;;;;;32.73;19.95;;;;;;;4.38;83.53;99713.05;1762932;79;21376;-62
2022/02/08 06:23:37;;;;;;;35.08;21.48;;;;;;;4.33;83.47;99722.13;1764474;80;21557;-61
2022/02/08 06:26:44;;;;;;;28.32;18.45;;;;;;;4.34;83.71;99729.25;1760142;80;21294;-61
2022/02/08 06:29:53;;;;;;;28.20;19.07;;;;;;;4.31;83.67;99721.42;1760729;80;21241;-63
2022/02/08 06:33:01;;;;;;;28.05;17.85;;;;;;;4.30;83.74;99719.73;1729220;82;21531;-63
2022/02/08 06:36:07;;;;;;;29.57;18.52;;;;;;;4.26;83.55;99731.89;1761323;80;21605;-63
2022/02/08 06:39:18;;;;;;;27.73;18.02;;;;;;;4.22;83.62;99737.73;1767644;79;21229;-62
2022/02/08 06:42:23;;;;;;;28.73;17.80;;;;;;;4.22;83.75;99741.31;1768531;80;21236;-60
2022/02/08 06:45:28;;;;;;;23.02;15.10;;;;;;;4.27;83.73;99750.33;1767154;79;21224;-63
2022/02/08 06:48:33;;;;;;;26.73;17.98;;;;;;;4.24;83.61;99754.70;1758861;80;21944;-63
2022/02/08 06:51:39;;;;;;;23.27;15.78;;;;;;;4.25;83.65;99759.97;1769599;81;21192;-61
2022/02/08 06:54:48;;;;;;;21.33;14.65;;;;;;;4.32;83.72;99769.20;1769336;79;21576;-62
2022/02/08 06:58:04;;;;;;;18.62;13.20;;;;;;;4.39;83.72;99770.28;1770344;80;21288;-63
2022/02/08 07:01:08;;;;;;;19.55;14.07;;;;;;;4.43;83.52;99769.00;1770182;79;21204;-63
2022/02/08 07:04:15;;;;;;;22.60;15.45;;;;;;;4.41;83.39;99771.48;1770542;79;21833;-64
2022/02/08 07:07:23;;;;;;;14.28;11.20;;;;;;;4.48;83.40;99768.53;1766336;80;21205;-62
2022/02/08 07:10:29;;;;;;;12.82;10.38;;;;;;;4.49;82.87;99771.58;1763203;79;21348;-59
2022/02/08 07:13:38;;;;;;;12.28;9.35;;;;;;;4.34;82.49;99778.01;1755751;80;21256;-61
2022/02/08 07:16:46;;;;;;;13.72;9.93;;;;;;;4.23;82.44;99778.73;1733360;82;21185;-59
2022/02/08 07:19:52;;;;;;;12.82;9.18;;;;;;;4.23;82.80;99790.93;1719950;83;21213;-61
2022/02/08 07:23:10;;;;;;;12.43;9.40;;;;;;;4.25;82.80;99791.64;1718741;83;21720;-61
2022/02/08 07:26:15;;;;;;;11.10;9.28;;;;;;;4.22;82.71;99802.25;1675325;84;21219;-60
2022/02/08 07:29:22;;;;;;;9.63;8.63;;;;;;;4.19;82.71;99800.34;1704104;83;21308;-60
2022/02/08 07:32:37;;;;;;;13.00;10.58;;;;;;;4.18;82.77;99803.58;1700297;83;21186;-61
2022/02/08 07:35:58;;;;;;;11.93;9.03;;;;;;;4.12;82.59;99806.02;1765066;81;21193;-60
2022/02/08 07:38:58;;;;;;;10.93;8.28;;;;;;;4.05;82.69;99817.95;1764985;80;21196;-61
2022/02/08 07:42:03;;;;;;;10.25;8.60;;;;;;;4.05;82.78;99813.88;1765592;81;21204;-61
2022/02/08 07:45:08;;;;;;;11.38;8.75;;;;;;;4.05;82.75;99819.30;1769172;79;21252;-61
2022/02/08 07:48:15;;;;;;;10.78;8.00;;;;;;;4.09;82.93;99822.05;1770220;80;21758;-62
2022/02/08 07:51:24;;;;;;;11.22;8.70;;;;;;;4.23;83.05;99817.49;1769727;81;21224;-64
2022/02/08 07:54:31;;;;;;;8.83;7.78;;;;;;;4.34;82.88;99820.00;1755727;79;21208;-63
2022/02/08 07:57:38;;;;;;;10.93;8.38;;;;;;;4.42;82.54;99825.52;1769764;80;21162;-59
2022/02/08 08:00:44;;;;;;;8.60;7.65;;;;;;;4.41;82.13;99821.13;1769131;79;21249;-63
2022/02/08 08:03:50;;;;;;;10.98;9.85;;;;;;;4.27;81.68;99821.62;1755318;81;21177;-63
2022/02/08 08:06:58;;;;;;;13.90;9.68;;;;;;;4.26;81.85;99829.91;1739516;82;21205;-63
2022/02/08 08:10:03;;;;;;;12.40;10.50;;;;;;;4.12;81.52;99835.29;1749703;81;21239;-63
2022/02/08 08:13:12;;;;;;;10.58;8.88;;;;;;;3.98;81.71;99841.19;1771353;78;21308;-63
2022/02/08 08:16:26;;;;;;;9.55;8.55;;;;;;;3.96;82.19;99849.98;1782630;80;21921;-63
2022/02/08 08:19:50;;;;;;;10.18;8.60;;;;;;;4.03;82.46;99863.75;1770382;79;21216;-63
2022/02/08 08:22:33;;;;;;;11.90;9.83;;;;;;;4.09;82.57;99866.73;1771113;80;21878;-63
2022/02/08 08:25:39;;;;;;;14.35;11.33;;;;;;;4.07;82.20;99875.53;1749579;80;21366;-61
2022/02/08 08:28:46;;;;;;;15.30;12.70;;;;;;;3.98;82.26;99883.68;1739788;82;21256;-61
2022/02/08 08:31:53;;;;;;;14.85;12.15;;;;;;;3.94;82.33;99887.17;1705927;84;21366;-61
2022/02/08 08:34:58;;;;;;;17.40;13.62;;;;;;;3.93;82.35;99888.15;1761233;80;21192;-60
2022/02/08 08:38:15;;;;;;;35.40;22.82;;;;;;;3.86;82.22;99889.75;1770216;80;21177;-62
2022/02/08 08:51:33;;;;;;;;;;;;;;;3.72;82.60;99887.98;1771133;80;21568;-59
2022/02/08 08:54:29;;;;;;;19.45;15.72;;;;;;;3.69;82.60;99891.85;1769114;80;20557;-60
2022/02/08 08:57:34;;;;;;;18.62;13.90;;;;;;;3.60;82.72;99883.74;1769922;81;21204;-60
2022/02/08 09:00:39;;;;;;;18.67;14.80;;;;;;;3.66;83.13;99889.92;1767629;80;21648;-60
2022/02/08 09:03:49;;;;;;;19.37;14.83;;;;;;;3.70;83.19;99895.39;1769185;80;21539;-62
2022/02/08 09:06:55;;;;;;;20.82;16.30;;;;;;;3.77;83.27;99897.40;1770168;80;21208;-59
2022/02/08 09:10:03;;;;;;;19.30;16.23;;;;;;;3.84;83.31;99886.33;1770887;79;21511;-61
2022/02/08 09:16:39;;;;;;;20.02;15.88;;;;;;;4.18;83.07;99882.61;1772785;79;21378;-61
2022/02/08 09:20:04;;;;;;;17.37;14.30;;;;;;;4.22;82.67;99878.09;1772581;79;21356;-61
2022/02/08 09:32:53;;;;;;;20.57;16.00;;;;;;;4.02;82.20;99914.38;1772515;80;21343;-61
2022/02/08 09:35:57;;;;;;;23.62;18.02;;;;;;;3.93;82.38;99924.70;1742564;81;21422;-60
2022/02/08 09:39:04;;;;;;;24.30;18.10;;;;;;;3.91;82.74;99925.37;1742235;81;21804;-62
2022/02/08 09:42:12;;;;;;;23.83;17.82;;;;;;;3.93;82.98;99926.05;1743019;82;21217;-61
2022/02/08 09:45:20;;;;;;;23.50;18.85;;;;;;;4.00;83.05;99928.55;1734675;81;21283;-60
2022/02/08 09:48:39;;;;;;;25.92;19.30;;;;;;;4.07;83.01;99932.89;1742122;82;21395;-63
2022/02/08 09:51:38;;;;;;;26.27;18.90;;;;;;;4.13;82.84;99929.10;1768860;81;21893;-62
2022/02/08 09:54:46;;;;;;;27.73;20.35;;;;;;;4.16;82.50;99932.87;1768935;80;21340;-62
2022/02/08 09:57:50;;;;;;;34.05;21.40;;;;;;;4.08;82.11;99946.77;1761401;81;21233;-62
2022/02/08 10:00:55;;;;;;;26.02;19.15;;;;;;;3.99;82.12;99953.93;1769934;80;21213;-59
2022/02/08 10:04:09;;;;;;;34.53;22.80;;;;;;;3.90;82.30;99948.01;1772279;79;21425;-61
2022/02/08 10:07:22;;;;;;;33.25;21.35;;;;;;;3.85;82.43;99944.91;1772078;80;21619;-61
2022/02/08 10:10:32;;;;;;;33.10;21.30;;;;;;;3.84;82.64;99936.41;1770889;80;21375;-60
2022/02/08 10:13:59;;;;;;;33.18;22.67;;;;;;;3.83;82.74;99944.19;1740668;82;21221;-62
2022/02/08 10:24:11;;;;;;;43.42;27.02;;;;;;;3.71;83.18;99952.08;1691962;83;21316;-60
2022/02/08 10:27:35;;;;;;;42.17;27.70;;;;;;;3.65;83.42;99961.27;1691616;85;21293;-62
2022/02/08 10:40:31;;;;;;;43.17;25.30;;;;;;;3.92;83.65;99964.97;1741890;80;21754;-61
2022/02/08 10:43:38;;;;;;;42.73;26.42;;;;;;;3.94;83.41;99970.23;1768717;80;21836;-60
2022/02/08 10:46:45;;;;;;;41.45;25.20;;;;;;;3.89;83.26;99967.97;1769173;81;21243;-61
2022/02/08 10:49:50;;;;;;;38.78;25.30;;;;;;;3.87;83.17;99975.89;1769249;79;21217;-61
2022/02/08 10:52:58;;;;;;;36.23;25.25;;;;;;;3.86;83.19;99976.38;1769975;81;21182;-61
2022/02/08 10:56:10;;;;;;;38.67;25.90;;;;;;;3.86;83.09;99971.45;1770120;79;21743;-60
2022/02/08 10:59:24;;;;;;;40.55;26.12;;;;;;;3.86;82.96;99970.10;1768611;81;21461;-61
2022/02/08 11:02:33;;;;;;;36.42;24.57;;;;;;;3.85;82.89;99972.47;1769178;80;21900;-61
2022/02/08 11:05:43;;;;;;;40.35;24.75;;;;;;;3.88;82.87;99985.71;1767896;80;21324;-60
2022/02/08 11:12:28;;;;;;;35.17;22.15;;;;;;;3.94;82.76;99989.19;1767980;81;21188;-62
2022/02/08 11:16:02;;;;;;;29.32;19.12;;;;;;;3.95;82.57;99982.28;1761918;80;22054;-60
2022/02/08 11:18:48;;;;;;;28.32;19.90;;;;;;;3.92;82.35;99981.22;1768806;80;21685;-60
2022/02/08 11:22:01;;;;;;;27.15;18.77;;;;;;;3.94;82.32;99986.00;1757803;81;21200;-62
2022/02/08 11:25:17;;;;;;;26.48;19.00;;;;;;;3.94;82.30;99988.70;1729472;83;21228;-60
2022/02/08 11:28:30;;;;;;;26.77;18.98;;;;;;;3.95;82.22;100001.72;1729574;82;21177;-62
2022/02/08 11:31:40;;;;;;;30.17;19.35;;;;;;;3.98;82.09;99995.53;1760318;81;21180;-62
2022/02/08 11:58:24;;;;;;;22.25;15.05;;;;;;;3.72;82.43;100032.30;1769449;81;21301;-61
2022/02/08 12:01:33;;;;;;;21.80;15.32;;;;;;;3.76;82.45;100029.66;1770348;81;21313;-61
2022/02/08 12:04:43;;;;;;;22.25;15.43;;;;;;;3.75;82.42;100041.48;1770580;79;21378;-62
2022/02/08 12:07:43;;;;;;;19.95;15.20;;;;;;;3.72;82.47;100036.36;1769876;81;21714;-62
2022/02/08 12:11:07;;;;;;;19.95;14.18;;;;;;;3.68;82.51;100035.44;1770658;79;21384;-62
2022/02/08 12:31:29;;;;;;;14.10;10.00;;;;;;;3.61;82.14;100066.27;1770693;80;21208;-61
2022/02/08 12:34:28;;;;;;;16.25;11.15;;;;;;;3.62;81.83;100072.02;1770450;79;21228;-65
2022/02/08 13:00:53;;;;;;;15.00;10.72;;;;;;;3.82;80.79;100110.30;1778965;78;21824;-61
2022/02/08 13:04:01;;;;;;;18.80;12.70;;;;;;;3.90;80.73;100110.97;1766916;80;21157;-62
2022/02/08 14:07:12;;;;;;;15.10;9.75;;;;;;;3.89;76.26;100164.74;1722151;81;21284;-62
2022/02/08 14:10:30;;;;;;;15.68;10.32;;;;;;;3.85;76.03;100156.06;1734643;82;21550;-62
2022/02/08 14:19:51;;;;;;;18.15;11.97;;;;;;;3.83;75.33;100166.17;1741349;78;21219;-62
2022/02/08 14:29:38;;;;;;;19.50;11.40;;;;;;;3.75;74.82;100199.84;1768799;80;21208;-62
2022/02/08 14:32:53;;;;;;;17.32;11.45;;;;;;;3.73;74.76;100201.82;1767837;81;21197;-62
2022/02/08 14:36:03;;;;;;;20.62;12.85;;;;;;;3.69;74.79;100204.45;1767495;81;21216;-63
2022/02/08 15:00:09;;;;;;;54.20;18.65;;;;;;;3.64;75.05;100221.59;1753816;81;21773;-63
2022/02/08 15:06:21;;;;;;;41.20;17.25;;;;;;;3.66;75.16;100226.38;1768103;80;21189;-63
2022/02/08 15:09:13;;;;;;;36.73;15.00;;;;;;;3.65;75.26;100232.77;1768073;81;21749;-64
2022/02/08 15:12:19;;;;;;;72.10;22.73;;;;;;;3.65;75.27;100236.83;1768909;81;21581;-63
2022/02/08 15:18:45;;;;;;;82.85;27.73;;;;;;;3.63;75.16;100244.73;1757991;80;21236;-64
2022/02/08 15:21:55;;;;;;;46.08;18.67;;;;;;;3.62;75.25;100252.48;1761750;79;21290;-63
2022/02/08 15:25:01;;;;;;;34.60;15.83;;;;;;;3.63;75.28;100264.52;1765010;80;21219;-64
2022/02/08 15:28:07;;;;;;;19.40;11.40;;;;;;;3.63;74.97;100267.22;1759638;81;21718;-64
2022/02/08 15:31:12;;;;;;;18.57;10.20;;;;;;;3.56;74.71;100264.71;1759136;81;22066;-63
2022/02/08 15:34:18;;;;;;;15.70;9.35;;;;;;;3.51;74.39;100275.56;1766689;81;21571;-64
2022/02/08 15:37:30;;;;;;;17.45;10.00;;;;;;;3.45;74.09;100270.20;1766317;80;21738;-63
2022/02/08 15:40:33;;;;;;;14.90;8.43;;;;;;;3.44;74.20;100273.05;1766725;80;21214;-64
2022/02/08 15:43:40;;;;;;;17.12;11.15;;;;;;;3.43;74.13;100275.38;1766382;80;21514;-63
2022/02/08 15:46:47;;;;;;;16.60;9.63;;;;;;;3.41;74.23;100278.73;1767331;81;21212;-65
2022/02/08 15:49:59;;;;;;;13.50;9.15;;;;;;;3.38;74.37;100274.42;1768166;79;21704;-64
2022/02/08 15:53:12;;;;;;;14.83;8.75;;;;;;;3.39;74.50;100276.16;1769215;81;21268;-64
2022/02/08 16:09:46;;;;;;;12.30;8.25;;;;;;;3.30;74.82;100290.45;1719935;82;21759;-65
2022/02/08 16:13:10;;;;;;;15.98;8.98;;;;;;;3.32;75.06;100298.44;1714073;83;21272;-64
2022/02/08 16:16:14;;;;;;;15.70;8.95;;;;;;;3.37;75.08;100301.13;1769253;79;21247;-64
2022/02/08 16:19:13;;;;;;;15.80;8.85;;;;;;;3.40;75.04;100308.97;1768551;79;21198;-64
2022/02/08 16:25:37;;;;;;;13.30;8.13;;;;;;;3.47;74.84;100303.89;1769959;81;21351;-64
2022/02/08 16:55:47;;;;;;;10.48;6.85;;;;;;;3.15;75.07;100343.17;1771549;79;21217;-63
2022/02/08 17:01:53;;;;;;;10.90;6.55;;;;;;;3.06;74.87;100347.50;1771882;80;21390;-64
2022/02/08 17:05:03;;;;;;;9.83;6.03;;;;;;;3.00;74.69;100352.08;1764503;80;21303;-63
2022/02/08 17:08:09;;;;;;;10.93;6.33;;;;;;;2.93;74.39;100347.33;1771742;80;21912;-63
2022/02/08 17:11:23;;;;;;;10.35;5.83;;;;;;;2.88;74.33;100361.71;1756660;81;21452;-63
2022/02/08 17:34:42;;;;;;;9.13;5.50;;;;;;;3.01;73.51;100366.47;1737552;81;21926;-64
2022/02/08 17:44:57;;;;;;;6.12;4.25;;;;;;;2.96;72.70;100362.80;1769099;81;21328;-63
2022/02/08 17:47:49;;;;;;;12.98;6.53;;;;;;;2.79;70.17;100360.62;1769357;80;21747;-64
2022/02/08 17:50:54;;;;;;;10.72;6.45;;;;;;;2.73;69.61;100384.59;1761119;80;21209;-65
2022/02/08 17:54:01;;;;;;;8.83;4.50;;;;;;;2.68;69.24;100380.08;1769756;80;21411;-64
2022/02/08 17:57:06;;;;;;;11.40;5.25;;;;;;;2.65;68.58;100383.88;1769801;80;21180;-63
2022/02/08 18:00:15;;;;;;;8.90;4.22;;;;;;;2.64;68.42;100379.95;1769860;81;21189;-63
2022/02/08 18:03:24;;;;;;;8.40;4.37;;;;;;;2.63;68.23;100390.41;1770706;80;21382;-63
2022/02/08 18:06:30;;;;;;;6.87;3.72;;;;;;;2.61;68.28;100391.88;1770786;80;21304;-64
2022/02/08 18:09:35;;;;;;;8.95;4.85;;;;;;;2.59;68.15;100382.16;1771957;79;21216;-64
2022/02/08 18:12:45;;;;;;;8.23;4.47;;;;;;;2.57;68.04;100384.16;1771571;80;21193;-63
2022/02/08 18:15:50;;;;;;;10.00;4.22;;;;;;;2.56;68.28;100394.58;1768760;81;21204;-64
2022/02/08 18:18:56;;;;;;;8.75;4.17;;;;;;;2.56;67.96;100395.92;1771358;79;21324;-65
2022/02/08 18:22:24;;;;;;;6.85;4.12;;;;;;;2.54;68.13;100396.53;1771689;80;21394;-64
2022/02/08 19:12:09;;;;;;;8.95;4.95;;;;;;;2.37;67.16;100421.36;1695028;82;21577;-64
2022/02/08 19:21:39;;;;;;;8.75;5.20;;;;;;;2.20;66.83;100423.20;1769145;81;21181;-64
2022/02/08 19:24:42;;;;;;;9.68;4.90;;;;;;;2.16;66.97;100427.11;1769164;79;21217;-64
2022/02/08 19:27:50;;;;;;;10.70;4.90;;;;;;;2.12;67.02;100431.05;1769833;79;21252;-64
2022/02/08 19:30:57;;;;;;;9.65;4.60;;;;;;;2.08;67.20;100440.39;1767377;80;21205;-65
2022/02/08 19:34:03;;;;;;;8.90;5.75;;;;;;;2.05;67.29;100432.02;1763016;79;21169;-65
2022/02/08 19:37:11;;;;;;;6.67;4.60;;;;;;;2.05;67.34;100423.05;1770715;81;21261;-64
2022/02/08 19:40:19;;;;;;;7.28;4.50;;;;;;;2.08;67.22;100428.24;1770696;80;21323;-64
2022/02/08 19:43:24;;;;;;;10.23;4.97;;;;;;;2.12;67.27;100427.00;1750123;80;21402;-64
2022/02/08 19:46:31;;;;;;;9.13;5.20;;;;;;;2.16;67.19;100432.03;1770946;80;21499;-64
2022/02/08 19:49:37;;;;;;;11.38;5.47;;;;;;;2.17;66.92;100442.35;1770995;79;21370;-64
2022/02/08 19:52:44;;;;;;;12.82;5.87;;;;;;;2.13;66.59;100434.11;1770597;81;21737;-64
2022/02/08 19:59:00;;;;;;;16.67;6.65;;;;;;;2.12;66.56;100436.45;1735405;82;21709;-64
2022/02/08 20:02:08;;;;;;;14.55;6.97;;;;;;;2.14;66.51;100441.25;1770136;81;21189;-64
2022/02/08 20:05:16;;;;;;;12.63;5.85;;;;;;;2.18;66.61;100438.18;1735144;82;21275;-65
2022/02/08 20:08:26;;;;;;;8.90;5.22;;;;;;;2.24;66.74;100438.17;1697990;84;21370;-65
2022/02/08 20:11:31;;;;;;;11.93;6.47;;;;;;;2.33;66.96;100442.86;1735519;82;21728;-64
2022/02/08 20:14:36;;;;;;;12.37;6.80;;;;;;;2.44;67.01;100438.30;1735480;82;21224;-64
2022/02/08 20:17:43;;;;;;;9.25;5.97;;;;;;;2.53;66.81;100429.95;1698303;84;21390;-65
2022/02/08 20:20:51;;;;;;;8.68;4.95;;;;;;;2.57;66.67;100421.47;1734889;82;21808;-64
2022/02/08 20:24:00;;;;;;;11.68;5.53;;;;;;;2.56;66.16;100416.19;1698410;84;21381;-66
2022/02/08 20:30:33;;;;;;;8.38;5.12;;;;;;;2.48;66.11;100396.56;1765524;81;21287;-65
2022/02/08 20:33:40;;;;;;;12.93;6.28;;;;;;;2.48;66.23;100395.69;1735305;82;21200;-65
2022/02/08 20:36:45;;;;;;;12.10;6.60;;;;;;;2.45;66.40;100390.05;1771087;80;21872;-64
2022/02/08 20:39:52;;;;;;;11.22;6.30;;;;;;;2.46;66.58;100396.30;1735360;82;21200;-65
2022/02/08 20:43:00;;;;;;;12.50;7.45;;;;;;;2.46;66.76;100385.01;1770910;80;21203;-65
2022/02/08 20:46:07;;;;;;;10.68;6.45;;;;;;;2.52;66.94;100384.50;1735259;82;21278;-66
2022/02/08 20:49:12;;;;;;;15.93;9.70;;;;;;;2.60;67.04;100382.55;1771116;80;21421;-64
2022/02/08 20:52:19;;;;;;;34.70;24.50;;;;;;;2.65;66.88;100374.41;1735521;82;21745;-64
2022/02/08 20:55:38;;;;;;;12.23;7.05;;;;;;;2.75;66.76;100370.47;1771087;80;21248;-63
2022/02/08 20:59:24;;;;;;;10.65;7.00;;;;;;;2.79;66.35;100364.67;1735311;82;21216;-64
2022/02/08 21:01:50;;;;;;;8.53;5.53;;;;;;;2.79;65.92;100370.59;1758863;80;21197;-65
2022/02/08 21:05:30;;;;;;;13.53;10.93;;;;;;;2.72;65.72;100363.97;1735441;82;21231;-65
2022/02/08 21:08:16;;;;;;;8.88;5.00;;;;;;;2.65;65.49;100355.98;1771172;80;21186;-64
2022/02/08 21:11:32;;;;;;;8.53;4.75;;;;;;;2.63;65.22;100364.22;1735166;82;21225;-64
2022/02/08 21:14:31;;;;;;;10.08;4.30;;;;;;;2.57;64.18;100362.02;1770769;80;21209;-64
2022/02/08 21:17:37;;;;;;;10.70;5.60;;;;;;;2.51;63.90;100354.91;1735408;82;21217;-63
2022/02/08 21:20:41;;;;;;;10.38;5.83;;;;;;;2.47;63.89;100357.52;1770889;80;21911;-65
2022/02/08 21:23:51;;;;;;;9.20;6.55;;;;;;;2.43;64.06;100351.98;1770603;80;21220;-64
2022/02/08 21:27:00;;;;;;;8.23;5.42;;;;;;;2.44;64.23;100345.61;1735723;82;21248;-64
2022/02/08 21:30:38;;;;;;;12.18;9.43;;;;;;;2.47;64.26;100352.11;1769783;80;21177;-65
2022/02/08 21:51:03;;;;;;;11.12;8.63;;;;;;;2.45;63.54;100355.42;1721808;83;21363;-64
2022/02/08 21:53:27;;;;;;;10.15;6.75;;;;;;;2.44;63.56;100357.77;1721855;83;21854;-65
2022/02/08 21:56:32;;;;;;;9.98;6.83;;;;;;;2.49;63.58;100353.69;1719957;83;21257;-64
2022/02/08 21:59:37;;;;;;;9.65;6.55;;;;;;;2.53;63.38;100357.88;1770248;81;21461;-64
2022/02/08 22:02:42;;;;;;;9.03;5.80;;;;;;;2.57;63.20;100367.94;1736550;82;21255;-64
2022/02/08 22:05:48;;;;;;;7.60;5.83;;;;;;;2.61;62.95;100365.34;1698667;84;21800;-63
2022/02/08 22:08:58;;;;;;;11.88;7.95;;;;;;;2.66;62.83;100364.48;1735619;82;21338;-64
2022/02/08 22:22:26;;;;;;;15.90;12.73;;;;;;;2.59;61.22;100367.30;1735939;82;21224;-64